EIW weather

County Memorial Airport
New Madrid, Missouri, United States

Public forecast

Using degrees Fahrenheit for public forecast. Weather courtesy of forecast.io.

Closest aviation weather report (METAR) to County Memorial Airport

Closest report is Sikeston Memorial Municipal Airport, 21.9 nm (40.6 km) N. Retrieved 2020/07/02 04:55 UTC (6 minutes ago):

KSIK 020455Z AUTO 12003KT 10SM CLR 22/22 A2995 RMK AO2

Closest aviation forecast (TAF) to County Memorial Airport

Closest forecast is Cape Girardeau Regional Airport, 41.5 nm (76.8 km) N. Retrieved 2020-07-02 00:24 UTC (5 hours ago):

TAF KCGI 012322Z 0200/0224 VRB05KT P6SM SCT012 BKN150 TEMPO 0200/0203 BKN012 FM020600 00000KT 4SM BR VCSH SCT050 BKN110 FM021300 VRB03KT P6SM SCT009 BKN050 FM021800 VRB05KT P6SM SCT025